Pagina principală
METAR-TAF:

METAR-TAF

Aeroporturi :

Futuna, Franța

Latitudine: 14-19S, longitudine: 178-07W, elevație: 6 m

METAR: lipsă

Ora: 03:18 (15:18 UTC)

Prognoză

Raportul a fost făcut în urmă cu 4 ore și 18 de minute, la 11:00 UTC
Prognoză valabilă de la 12 ora 12 UTC la 13 ora 12 UTC
Vânt 3 kt din direcții variabile
Vizibilitate de 10 km sau mai mult
Nori puțini la o înălțime de 2000 picior
Nori împrăștiați la o înălțime de 3500 picior
Probabilitate 30% :
Temporar
de la 12 ora 16 UTC la 12 ora 21 UTC
averse de ploaie,

TAF: NLWF 121100Z 1212/1312 VRB03KT 9999 FEW020 SCT035 PROB30 TEMPO 1216/1221 SHRA

Observații și prognoze meteo pentru peste 4.000 de aeroporturi (rapoarte METAR și TAF).

Stațiile disponibile sunt reprezentate pe hartă prin puncte galbene și roșii.

Țineți indicatorul mouse-ului pe punctul dorit pentru a vedea denumirea stației.

Apoi, faceți clic pentru a vedea observațiile și prognozele meteorologice.

Pentru a schimba harta: Pentru mărire, faceți clic pe butoanele verzi cu cruce neagră; pentru micșorare, pe butonul verde cu o liniuță; pentru hărți învecinate, pe săgețile verzi.


METAR-TAF: